Time;durP1;ratioP1;P1;durP2;ratioP2;P2;SDS_P1;SDS_P2;PMS_P1;PMS_P2;Temp;Humidity;BMP_temperature;BMP_pressure;BME280_temperature;BME280_humidity;BME280_pressure;Samples;Min_cycle;Max_cycle;Signal;HPM_P1;HPM_P2
2023/10/09 00:01:31;;;;;;;28.60;7.90;;;;;;;8.49;50.87;99768.39;135018;1283;25436;-65
2023/10/09 00:04:36;;;;;;;32.50;9.20;;;;;;;8.54;51.00;99770.48;134976;1282;22733;-63
2023/10/09 00:07:40;;;;;;;39.50;11.50;;;;;;;8.63;50.64;99754.24;135067;1283;22536;-65
2023/10/09 00:10:49;;;;;;;36.80;10.60;;;;;;;8.65;50.62;99742.50;135025;1282;22539;-64
2023/10/09 00:13:52;;;;;;;27.40;8.60;;;;;;;8.69;50.28;99737.30;135022;1282;25289;-64
2023/10/09 00:17:05;;;;;;;27.10;8.60;;;;;;;8.59;50.80;99733.86;135024;1283;22548;-65
2023/10/09 00:20:17;;;;;;;26.90;7.70;;;;;;;8.55;50.72;99732.96;135025;1282;22559;-63
2023/10/09 00:23:20;;;;;;;24.50;7.80;;;;;;;8.48;51.03;99724.86;135015;1282;22555;-64
2023/10/09 00:26:25;;;;;;;23.00;7.30;;;;;;;8.47;51.19;99730.27;135015;1274;22574;-64
2023/10/09 00:29:34;;;;;;;24.70;7.60;;;;;;;8.51;51.43;99725.96;135019;1283;26655;-64
2023/10/09 00:32:42;;;;;;;17.90;5.70;;;;;;;8.62;51.37;99723.27;135041;1283;25435;-64
2023/10/09 00:35:54;;;;;;;22.50;6.40;;;;;;;8.69;50.93;99717.44;135011;1282;22547;-62
2023/10/09 00:39:00;;;;;;;23.50;6.80;;;;;;;8.70;51.05;99712.67;135026;1282;22540;-65
2023/10/09 00:42:06;;;;;;;22.90;6.20;;;;;;;8.69;50.82;99703.63;135031;1282;22580;-64
2023/10/09 00:45:10;;;;;;;23.10;7.20;;;;;;;8.70;50.83;99698.02;134999;1283;22559;-64
2023/10/09 00:48:14;;;;;;;23.90;6.80;;;;;;;8.72;50.81;99690.80;135021;1283;22555;-64
2023/10/09 00:51:18;;;;;;;22.50;7.20;;;;;;;8.70;51.12;99678.49;135021;1282;22529;-64
2023/10/09 00:54:26;;;;;;;21.20;6.30;;;;;;;8.66;51.09;99676.40;135025;1283;22535;-64
2023/10/09 00:57:28;;;;;;;22.90;6.70;;;;;;;8.61;51.28;99677.98;135038;1282;25435;-64
2023/10/09 01:00:45;;;;;;;;;;;;;;;8.65;51.15;99675.90;134989;1282;22540;-63
2023/10/09 01:03:51;;;;;;;20.80;5.60;;;;;;;8.60;50.99;99669.10;135029;1283;24242;-63
2023/10/09 01:07:06;;;;;;;20.90;5.90;;;;;;;8.59;51.31;99662.01;134990;1282;26780;-64
2023/10/09 01:10:35;;;;;;;20.30;5.70;;;;;;;8.64;51.24;99658.19;135035;1282;22537;-64
2023/10/09 01:13:39;;;;;;;26.70;6.70;;;;;;;8.73;51.12;99650.30;135034;1282;22532;-64
2023/10/09 01:16:46;;;;;;;23.60;6.60;;;;;;;8.80;51.32;99647.92;135012;1282;22616;-63
2023/10/09 01:19:50;;;;;;;22.00;5.60;;;;;;;8.80;51.07;99647.60;135022;1283;22548;-62
2023/10/09 01:22:56;;;;;;;20.40;5.00;;;;;;;8.85;50.71;99650.68;135027;1283;22533;-64
2023/10/09 01:25:58;;;;;;;19.60;4.90;;;;;;;8.72;50.75;99659.77;135028;1282;25430;-64
2023/10/09 01:29:01;;;;;;;20.00;5.10;;;;;;;8.65;50.93;99656.21;135029;1283;22544;-64
2023/10/09 01:32:04;;;;;;;21.70;6.30;;;;;;;8.65;50.67;99640.67;135021;1283;24382;-63
2023/10/09 01:35:20;;;;;;;22.30;5.50;;;;;;;8.72;50.80;99639.73;135034;1283;22584;-62
2023/10/09 01:38:40;;;;;;;23.80;6.50;;;;;;;8.75;50.84;99641.36;135022;1282;22604;-63
2023/10/09 01:41:46;;;;;;;20.90;5.90;;;;;;;8.75;50.95;99641.84;135029;1283;22569;-63
2023/10/09 01:44:49;;;;;;;20.20;5.90;;;;;;;8.79;50.81;99642.03;135044;1282;25283;-63
2023/10/09 01:47:53;;;;;;;19.30;5.40;;;;;;;8.80;50.81;99640.41;135005;1282;22546;-64
2023/10/09 01:50:55;;;;;;;21.10;5.60;;;;;;;8.85;50.68;99649.15;135047;1283;22592;-64
2023/10/09 01:53:58;;;;;;;20.70;5.60;;;;;;;9.03;50.59;99651.73;135008;1283;25273;-62
2023/10/09 01:57:05;;;;;;;23.00;5.90;;;;;;;9.10;50.32;99646.02;135032;1264;22519;-63
2023/10/09 02:00:16;;;;;;;20.00;5.70;;;;;;;9.01;50.15;99637.82;135026;1283;22550;-64
2023/10/09 02:03:18;;;;;;;21.60;5.60;;;;;;;8.86;50.51;99631.48;135038;1282;22544;-64
2023/10/09 02:06:29;;;;;;;;;;;;;;;8.80;50.94;99628.05;135050;1264;22563;-65
2023/10/09 02:09:32;;;;;;;22.00;5.80;;;;;;;8.87;51.16;99625.69;135046;1283;22536;-64
2023/10/09 02:12:35;;;;;;;21.70;5.80;;;;;;;8.91;50.84;99624.10;135019;1283;22540;-64
2023/10/09 02:15:54;;;;;;;22.30;6.10;;;;;;;8.93;50.67;99620.04;135019;1283;22551;-64
2023/10/09 02:18:58;;;;;;;21.40;5.80;;;;;;;8.87;50.89;99612.95;135048;1282;22544;-64
2023/10/09 02:22:02;;;;;;;22.90;6.20;;;;;;;8.84;51.13;99618.48;135022;1283;22540;-64
2023/10/09 02:25:05;;;;;;;19.10;5.20;;;;;;;8.92;51.01;99617.97;135057;1283;24426;-64
2023/10/09 02:28:07;;;;;;;19.30;5.80;;;;;;;9.00;50.86;99613.98;135089;1283;22521;-64
2023/10/09 02:31:10;;;;;;;20.40;5.80;;;;;;;9.09;50.33;99604.35;135036;1282;25353;-64
2023/10/09 02:34:12;;;;;;;19.90;5.30;;;;;;;9.15;50.70;99593.48;135022;1283;24375;-64
2023/10/09 02:37:23;;;;;;;20.80;5.60;;;;;;;9.11;50.79;99591.70;135061;1283;22533;-63
2023/10/09 02:40:27;;;;;;;19.50;5.60;;;;;;;9.01;50.58;99589.35;135042;1283;23281;-65
2023/10/09 02:43:34;;;;;;;20.60;5.30;;;;;;;8.94;50.75;99586.66;135037;1283;22567;-64
2023/10/09 02:46:36;;;;;;;18.50;4.70;;;;;;;8.96;50.67;99581.15;135065;1283;22537;-64
2023/10/09 02:49:39;;;;;;;17.70;4.70;;;;;;;9.03;51.17;99584.02;135019;1283;25430;-64
2023/10/09 02:52:42;;;;;;;20.60;5.40;;;;;;;9.14;50.67;99583.71;135005;1282;22540;-64
2023/10/09 02:56:00;;;;;;;20.80;5.10;;;;;;;9.14;50.81;99582.70;135025;1283;22596;-64
2023/10/09 02:59:06;;;;;;;22.60;5.50;;;;;;;9.01;51.16;99584.48;135055;1283;22736;-64
2023/10/09 03:02:09;;;;;;;19.00;4.90;;;;;;;8.99;51.17;99587.34;135059;1282;23846;-65
2023/10/09 03:05:12;;;;;;;21.10;5.50;;;;;;;9.01;51.10;99585.69;135044;1283;22530;-64
2023/10/09 03:08:16;;;;;;;18.80;5.40;;;;;;;9.08;51.04;99579.96;135022;1283;22552;-64
2023/10/09 03:11:19;;;;;;;19.60;5.20;;;;;;;9.15;50.93;99572.52;135044;1283;22539;-64
2023/10/09 03:14:24;;;;;;;19.20;4.70;;;;;;;9.10;51.11;99573.63;135082;1283;22523;-64
2023/10/09 03:17:27;;;;;;;19.90;5.30;;;;;;;9.20;50.95;99576.83;135016;1283;22542;-64
2023/10/09 03:20:30;;;;;;;19.30;5.40;;;;;;;9.18;51.06;99579.02;135055;1282;22548;-64
2023/10/09 03:23:34;;;;;;;22.50;5.70;;;;;;;8.95;51.16;99569.89;135038;1283;22572;-64
2023/10/09 03:26:36;;;;;;;23.60;6.60;;;;;;;9.00;51.22;99566.17;135056;1283;22529;-64
2023/10/09 03:29:39;;;;;;;24.80;6.50;;;;;;;9.10;51.07;99571.69;135048;1283;22542;-64
2023/10/09 03:32:41;;;;;;;21.30;5.90;;;;;;;8.99;51.28;99572.00;135027;1282;25261;-63
2023/10/09 03:35:44;;;;;;;23.80;5.90;;;;;;;8.79;51.34;99572.84;135085;1282;22533;-63
2023/10/09 03:38:46;;;;;;;16.80;4.40;;;;;;;8.68;51.72;99565.60;135056;1264;22538;-61
2023/10/09 03:41:50;;;;;;;21.80;5.20;;;;;;;8.73;51.69;99551.09;135069;1283;25505;-63
2023/10/09 03:44:53;;;;;;;21.10;5.20;;;;;;;8.69;51.89;99547.42;135066;1283;23323;-63
2023/10/09 03:48:02;;;;;;;18.90;5.30;;;;;;;8.69;52.07;99540.79;135045;1283;23869;-64
2023/10/09 03:51:11;;;;;;;18.40;4.90;;;;;;;8.72;52.03;99541.02;135020;1283;24398;-64
2023/10/09 03:54:13;;;;;;;19.40;5.20;;;;;;;8.83;51.78;99542.66;135035;1282;22550;-63
2023/10/09 03:57:18;;;;;;;21.60;5.70;;;;;;;8.81;52.15;99539.43;135082;1282;22588;-64
2023/10/09 04:00:27;;;;;;;18.50;4.80;;;;;;;8.95;52.12;99536.92;135048;1283;22536;-63
2023/10/09 04:03:29;;;;;;;19.00;5.40;;;;;;;8.97;52.13;99536.86;135038;1283;22558;-63
2023/10/09 04:06:32;;;;;;;19.90;5.20;;;;;;;8.90;52.27;99532.77;135040;1283;22662;-62
2023/10/09 04:09:39;;;;;;;18.10;5.00;;;;;;;8.88;52.18;99534.75;135013;1283;22598;-64
2023/10/09 04:12:42;;;;;;;20.60;5.20;;;;;;;8.88;52.69;99532.66;135079;1283;22536;-63
2023/10/09 04:15:44;;;;;;;;;;;;;;;9.19;52.15;99528.38;135052;1283;22623;-63
2023/10/09 04:18:47;;;;;;;19.30;4.90;;;;;;;9.33;52.28;99523.01;135014;1282;24265;-63
2023/10/09 04:21:49;;;;;;;19.80;5.00;;;;;;;9.33;52.22;99519.04;135073;1282;22538;-64
2023/10/09 04:24:52;;;;;;;20.60;5.30;;;;;;;9.30;51.71;99519.70;135052;1265;22533;-63
2023/10/09 04:28:03;;;;;;;20.40;4.80;;;;;;;9.24;51.89;99505.83;135073;1282;22533;-64
2023/10/09 04:31:07;;;;;;;30.50;6.40;;;;;;;9.25;51.81;99499.34;135061;1283;25273;-62
2023/10/09 04:34:23;;;;;;;21.00;5.20;;;;;;;9.19;51.99;99490.84;135097;1283;22553;-63
2023/10/09 04:37:36;;;;;;;19.30;5.10;;;;;;;9.21;52.06;99492.85;135089;1283;25442;-64
2023/10/09 04:40:51;;;;;;;18.10;4.40;;;;;;;9.36;51.88;99498.11;135047;1283;22549;-64
2023/10/09 04:44:03;;;;;;;18.10;4.70;;;;;;;9.37;51.96;99500.54;135066;1282;22544;-63
2023/10/09 04:47:25;;;;;;;19.30;4.80;;;;;;;9.33;52.02;99484.64;135039;1282;23359;-63
2023/10/09 04:50:58;;;;;;;20.20;4.70;;;;;;;9.26;52.25;99465.06;135060;1283;22541;-64
2023/10/09 04:54:12;;;;;;;21.70;5.30;;;;;;;9.23;52.65;99455.79;135053;1282;22554;-64
2023/10/09 04:57:17;;;;;;;21.80;4.90;;;;;;;9.26;52.60;99453.92;135076;1283;25427;-64
2023/10/09 05:00:46;;;;;;;21.00;5.10;;;;;;;9.29;52.78;99442.59;135047;1282;22543;-64
2023/10/09 05:03:45;;;;;;;21.30;4.80;;;;;;;9.45;52.37;99434.20;135058;1283;22536;-64
2023/10/09 05:06:55;;;;;;;;;;;;;;;9.35;53.23;99430.96;135053;1283;22509;-65
2023/10/09 05:10:09;;;;;;;19.30;4.90;;;;;;;9.63;52.94;99419.70;135105;1282;22524;-64
2023/10/09 05:13:13;;;;;;;19.80;5.40;;;;;;;9.83;52.68;99416.31;135145;1282;25409;-64
2023/10/09 05:16:18;;;;;;;21.50;5.50;;;;;;;9.91;52.78;99418.05;135064;1283;24215;-65
2023/10/09 05:19:33;;;;;;;22.80;5.90;;;;;;;10.02;52.52;99412.09;135091;1283;22994;-62
2023/10/09 05:22:39;;;;;;;22.70;5.80;;;;;;;10.04;52.57;99393.29;135074;1283;24657;-64
2023/10/09 05:25:55;;;;;;;20.30;5.90;;;;;;;9.91;52.66;99382.89;135048;1282;22563;-63
2023/10/09 05:28:58;;;;;;;21.70;5.60;;;;;;;9.85;53.13;99377.09;135109;1283;22697;-65
2023/10/09 05:32:03;;;;;;;20.10;5.50;;;;;;;9.90;53.40;99377.18;135106;1283;22551;-65
2023/10/09 05:35:15;;;;;;;21.50;5.60;;;;;;;9.99;53.41;99370.84;135078;1283;22553;-64
2023/10/09 05:38:24;;;;;;;24.30;6.50;;;;;;;10.17;53.29;99367.66;135106;1264;24261;-64
2023/10/09 05:41:47;;;;;;;23.70;7.30;;;;;;;10.29;53.09;99370.73;135077;1283;22562;-64
2023/10/09 05:51:53;;;;;;;22.20;6.00;;;;;;;10.44;53.34;99375.41;135060;1283;22548;-64
2023/10/09 05:55:19;;;;;;;27.10;6.80;;;;;;;10.45;53.47;99372.41;135092;1283;22536;-63
2023/10/09 06:04:57;;;;;;;26.10;7.10;;;;;;;10.95;54.00;99372.73;135066;1283;25805;-64
2023/10/09 06:08:12;;;;;;;24.60;7.50;;;;;;;11.06;54.06;99377.04;135055;1282;25608;-64
2023/10/09 06:17:51;;;;;;;37.60;11.80;;;;;;;11.45;53.95;99369.30;135097;1282;24292;-64
2023/10/09 06:24:41;;;;;;;37.10;11.30;;;;;;;11.56;54.09;99383.06;135071;1283;22540;-64
2023/10/09 06:27:59;;;;;;;36.40;13.70;;;;;;;11.77;53.70;99378.38;135083;1282;22553;-64
2023/10/09 06:31:27;;;;;;;36.30;13.40;;;;;;;11.94;53.45;99379.52;135086;1283;22651;-62
2023/10/09 06:34:32;;;;;;;35.40;13.70;;;;;;;12.06;53.26;99381.28;135088;1283;22815;-64
2023/10/09 06:38:10;;;;;;;40.40;15.40;;;;;;;12.10;53.15;99373.88;135058;1282;25442;-64
2023/10/09 06:44:52;;;;;;;30.30;11.20;;;;;;;12.10;53.50;99375.61;135080;1264;22549;-65
2023/10/09 06:48:07;;;;;;;32.70;11.30;;;;;;;12.28;53.28;99372.27;135104;1283;26759;-64
2023/10/09 06:51:15;;;;;;;28.50;11.00;;;;;;;12.38;53.26;99370.85;135055;1283;80219;-64
2023/10/09 06:54:25;;;;;;;30.40;10.40;;;;;;;12.52;53.17;99361.58;135102;1283;22554;-64
2023/10/09 06:57:48;;;;;;;33.70;12.50;;;;;;;12.60;53.34;99354.77;135092;1281;24223;-65
2023/10/09 07:04:19;;;;;;;37.60;15.70;;;;;;;12.84;52.72;99347.36;135073;1282;22540;-64
2023/10/09 07:07:24;;;;;;;37.90;13.50;;;;;;;12.91;52.74;99344.65;135111;1283;22604;-65
2023/10/09 07:10:39;;;;;;;37.30;13.90;;;;;;;13.05;52.58;99345.16;135068;1283;25509;-64
2023/10/09 07:13:44;;;;;;;54.60;25.10;;;;;;;13.11;52.30;99353.02;135095;1283;25409;-61
2023/10/09 07:16:57;;;;;;;39.30;16.20;;;;;;;13.19;52.06;99357.08;135058;1283;25645;-64
2023/10/09 07:20:13;;;;;;;39.50;15.20;;;;;;;12.94;51.87;99353.60;135100;1283;22555;-64
2023/10/09 07:23:15;;;;;;;35.60;14.80;;;;;;;12.79;51.95;99359.59;135092;1283;22544;-64
2023/10/09 07:26:25;;;;;;;;;;;;;;;12.69;52.08;99359.70;135070;1283;22543;-64
2023/10/09 07:29:27;;;;;;;40.40;15.40;;;;;;;12.84;52.07;99340.87;135081;1283;22548;-64
2023/10/09 07:32:31;;;;;;;36.40;12.10;;;;;;;12.88;52.11;99345.50;135084;1282;22536;-64
2023/10/09 07:35:46;;;;;;;36.10;11.90;;;;;;;12.86;52.00;99343.15;135077;1283;25335;-63
2023/10/09 07:38:55;;;;;;;36.50;11.90;;;;;;;13.01;52.03;99334.35;135079;1283;22532;-60
2023/10/09 07:42:01;;;;;;;32.20;11.00;;;;;;;13.07;52.07;99344.17;135112;1283;22532;-63
2023/10/09 07:45:12;;;;;;;33.40;10.60;;;;;;;12.98;52.51;99341.03;135070;1282;22532;-64
2023/10/09 07:48:16;;;;;;;32.50;9.70;;;;;;;13.18;52.47;99351.04;135107;1282;22533;-64
2023/10/09 07:51:19;;;;;;;39.00;14.50;;;;;;;13.12;52.33;99359.84;135147;1283;22565;-64
2023/10/09 07:54:31;;;;;;;33.10;12.10;;;;;;;13.20;52.66;99357.73;135076;1283;24386;-65
2023/10/09 07:57:42;;;;;;;31.30;12.00;;;;;;;13.19;52.41;99350.77;135095;1283;22666;-65
2023/10/09 08:04:10;;;;;;;23.50;7.70;;;;;;;13.40;53.34;99344.71;135021;1275;22673;-64
2023/10/09 08:07:19;;;;;;;23.10;7.30;;;;;;;13.42;52.93;99348.15;135089;1283;22535;-64
2023/10/09 08:13:56;;;;;;;25.60;7.40;;;;;;;13.59;52.90;99343.52;135054;1283;25428;-64
2023/10/09 08:17:11;;;;;;;21.90;6.30;;;;;;;13.72;52.56;99353.92;135065;1282;25425;-64
2023/10/09 08:20:17;;;;;;;21.70;5.90;;;;;;;13.67;52.97;99349.70;135083;1282;25424;-65
2023/10/09 08:23:28;;;;;;;21.20;5.50;;;;;;;13.65;52.93;99356.30;135105;1283;25432;-65
2023/10/09 08:26:47;;;;;;;19.80;5.10;;;;;;;13.68;53.33;99358.20;135069;1283;22548;-64
2023/10/09 08:29:49;;;;;;;20.30;5.30;;;;;;;13.81;53.40;99361.73;135049;1283;22567;-64
2023/10/09 08:33:02;;;;;;;19.00;4.80;;;;;;;13.92;53.50;99356.84;135083;1283;22622;-64
2023/10/09 08:36:05;;;;;;;19.30;5.40;;;;;;;13.88;53.31;99355.88;135049;1283;22540;-65
2023/10/09 08:39:17;;;;;;;17.10;3.80;;;;;;;13.92;53.51;99354.71;135056;1283;22549;-64
2023/10/09 08:42:19;;;;;;;14.90;3.40;;;;;;;14.01;52.78;99342.38;135059;1283;22515;-64
2023/10/09 08:45:24;;;;;;;16.90;3.90;;;;;;;14.00;52.41;99328.55;135081;1282;22542;-64
2023/10/09 08:48:27;;;;;;;19.80;5.10;;;;;;;13.95;52.21;99332.36;135043;1283;25291;-64
2023/10/09 08:51:30;;;;;;;15.60;3.90;;;;;;;13.87;52.71;99332.91;135069;1283;22536;-64
2023/10/09 08:54:34;;;;;;;18.30;3.90;;;;;;;13.79;52.30;99328.84;135052;1283;22611;-65
2023/10/09 08:57:36;;;;;;;14.90;3.10;;;;;;;13.77;52.39;99323.34;135089;1283;22576;-64
2023/10/09 09:00:38;;;;;;;12.90;3.60;;;;;;;13.70;52.31;99319.98;135032;1264;24234;-63
2023/10/09 09:03:43;;;;;;;15.60;4.20;;;;;;;13.80;52.44;99307.15;135070;1283;22555;-62
2023/10/09 09:06:45;;;;;;;15.20;3.70;;;;;;;13.96;51.99;99305.38;135015;1282;22573;-64
2023/10/09 09:09:48;;;;;;;15.20;3.50;;;;;;;13.99;51.62;99310.84;135072;1283;25381;-60
2023/10/09 09:12:53;;;;;;;15.00;3.10;;;;;;;14.03;51.46;99313.02;135067;1282;22571;-65
2023/10/09 09:15:57;;;;;;;14.50;3.40;;;;;;;13.95;51.61;99326.05;135070;1282;22663;-64
2023/10/09 09:19:03;;;;;;;13.60;3.40;;;;;;;13.85;51.63;99344.80;135037;1283;25507;-64
2023/10/09 09:22:12;;;;;;;13.40;3.40;;;;;;;13.85;51.76;99348.14;134975;1283;22533;-64
2023/10/09 09:25:15;;;;;;;14.80;3.80;;;;;;;14.02;51.72;99344.72;135073;1275;22571;-64
2023/10/09 09:28:20;;;;;;;15.80;4.10;;;;;;;14.11;51.17;99346.59;135021;1283;22565;-64
2023/10/09 09:31:23;;;;;;;16.50;3.60;;;;;;;14.31;51.51;99331.85;135046;1282;22562;-64
2023/10/09 09:34:28;;;;;;;15.60;3.90;;;;;;;14.41;51.11;99330.68;135048;1283;22546;-62
2023/10/09 09:37:33;;;;;;;14.00;3.30;;;;;;;14.51;51.63;99328.89;135037;1283;22655;-64
2023/10/09 09:40:41;;;;;;;14.30;3.20;;;;;;;14.54;50.91;99333.61;135008;1283;25404;-64
2023/10/09 09:43:46;;;;;;;15.30;3.20;;;;;;;14.67;50.93;99326.24;135034;1282;22592;-61
2023/10/09 09:46:48;;;;;;;13.10;3.50;;;;;;;14.65;50.80;99323.64;135047;1283;22542;-64
2023/10/09 09:49:52;;;;;;;16.30;4.00;;;;;;;14.72;50.99;99318.73;135032;1283;22804;-64
2023/10/09 09:52:55;;;;;;;14.00;3.40;;;;;;;14.82;50.64;99311.48;135045;1283;22566;-64
2023/10/09 09:55:58;;;;;;;15.90;3.60;;;;;;;15.11;50.83;99298.02;134998;1283;22626;-64
2023/10/09 09:59:00;;;;;;;10.30;3.00;;;;;;;15.33;50.81;99293.63;135022;1283;22547;-65
2023/10/09 10:02:07;;;;;;;14.80;3.60;;;;;;;15.44;49.82;99307.73;135005;1274;22563;-64
2023/10/09 10:05:11;;;;;;;17.40;4.50;;;;;;;15.33;50.42;99308.42;135033;1283;25504;-64
2023/10/09 10:08:14;;;;;;;17.10;4.20;;;;;;;15.39;50.42;99297.75;135066;1283;22559;-64
2023/10/09 10:11:16;;;;;;;;;;;;;;;15.34;49.86;99273.92;135071;1283;24513;-64
2023/10/09 10:14:28;;;;;;;19.20;4.70;;;;;;;15.42;50.39;99267.39;135042;1283;22542;-64
2023/10/09 10:17:31;;;;;;;18.40;4.90;;;;;;;15.64;49.83;99265.55;135062;1283;22559;-65
2023/10/09 10:20:35;;;;;;;18.40;5.00;;;;;;;15.70;49.97;99256.13;135060;1283;22551;-65
2023/10/09 10:23:37;;;;;;;19.50;5.30;;;;;;;16.02;49.73;99244.60;135055;1283;24411;-64
2023/10/09 10:26:40;;;;;;;16.80;4.40;;;;;;;16.17;49.42;99234.91;134930;1283;24411;-65
2023/10/09 10:29:42;;;;;;;17.00;4.40;;;;;;;16.43;48.93;99224.09;134965;1283;22544;-64
2023/10/09 10:32:45;;;;;;;18.30;4.70;;;;;;;16.68;49.20;99220.39;135048;1283;22546;-62
2023/10/09 10:35:52;;;;;;;18.40;5.30;;;;;;;17.33;48.88;99218.68;135055;1282;22552;-65
2023/10/09 10:38:55;;;;;;;18.90;5.30;;;;;;;17.47;47.08;99215.95;135053;1283;22549;-64
2023/10/09 10:42:00;;;;;;;17.00;4.20;;;;;;;17.52;47.71;99202.64;135035;1283;22546;-63
2023/10/09 10:45:03;;;;;;;18.30;5.00;;;;;;;17.56;46.77;99207.38;135025;1283;22533;-64
2023/10/09 10:48:09;;;;;;;;;;;;;;;17.52;47.87;99210.59;135021;1282;22517;-64
2023/10/09 10:51:14;;;;;;;16.70;4.20;;;;;;;17.58;47.43;99203.72;135029;1283;22585;-62
2023/10/09 10:54:45;;;;;;;16.30;4.10;;;;;;;17.42;47.13;99194.63;135013;1282;25256;-61
2023/10/09 10:58:00;;;;;;;16.70;4.60;;;;;;;17.38;47.41;99183.10;134987;1283;22676;-65
2023/10/09 11:01:15;;;;;;;14.00;4.10;;;;;;;17.38;47.12;99172.65;135047;1272;22649;-62
2023/10/09 11:04:24;;;;;;;14.40;3.80;;;;;;;17.33;47.59;99163.01;135032;1283;26653;-64
2023/10/09 11:07:26;;;;;;;17.10;3.70;;;;;;;17.39;47.40;99151.20;135021;1283;22534;-64
2023/10/09 11:10:31;;;;;;;;;;;;;;;17.46;47.42;99144.78;135040;1283;22666;-64
2023/10/09 11:13:35;;;;;;;15.60;4.00;;;;;;;17.60;47.30;99133.84;135001;1283;22539;-63
2023/10/09 11:16:47;;;;;;;19.20;4.90;;;;;;;17.67;47.01;99123.16;135037;1283;25508;-64
2023/10/09 11:19:52;;;;;;;18.00;4.80;;;;;;;17.68;47.30;99116.05;135010;1282;23404;-64
2023/10/09 11:23:14;;;;;;;16.80;4.80;;;;;;;17.67;46.67;99108.48;135042;1283;22564;-64
2023/10/09 11:26:25;;;;;;;18.00;4.70;;;;;;;17.65;46.38;99091.71;135023;1283;22575;-65
2023/10/09 11:29:52;;;;;;;24.80;7.00;;;;;;;17.69;46.36;99088.05;135038;1282;22542;-63
2023/10/09 11:32:53;;;;;;;21.70;5.30;;;;;;;17.75;46.17;99093.71;135027;1283;22671;-63
2023/10/09 11:35:56;;;;;;;23.00;6.10;;;;;;;17.61;45.95;99095.41;135008;1282;25508;-64
2023/10/09 11:39:14;;;;;;;24.40;6.10;;;;;;;17.54;45.99;99098.84;135027;1283;22566;-64
2023/10/09 11:42:35;;;;;;;24.80;6.80;;;;;;;17.44;46.10;99103.61;135031;1283;22644;-64
2023/10/09 11:45:38;;;;;;;22.00;5.70;;;;;;;17.14;46.20;99108.60;135024;1283;22537;-64
2023/10/09 11:48:47;;;;;;;22.50;6.00;;;;;;;16.92;46.54;99115.46;135010;1283;22542;-64
2023/10/09 11:52:34;;;;;;;18.10;4.70;;;;;;;16.91;46.41;99114.72;135031;1283;23004;-64
2023/10/09 11:55:15;;;;;;;16.60;4.30;;;;;;;16.78;46.37;99112.54;135024;1283;22548;-65
2023/10/09 11:58:22;;;;;;;15.40;3.80;;;;;;;16.71;46.34;99105.14;135026;1282;22646;-65
2023/10/09 12:01:26;;;;;;;16.30;4.20;;;;;;;16.49;46.59;99109.22;134999;1283;24395;-63
2023/10/09 12:04:30;;;;;;;12.60;3.40;;;;;;;16.42;46.57;99117.91;135007;1282;22563;-64
2023/10/09 12:07:32;;;;;;;15.70;3.70;;;;;;;16.38;46.61;99127.27;134995;1283;22556;-64
2023/10/09 12:10:38;;;;;;;15.30;3.60;;;;;;;16.38;46.81;99122.83;134976;1282;24230;-64
2023/10/09 12:13:42;;;;;;;14.90;3.60;;;;;;;16.50;46.51;99110.94;135013;1282;22559;-64
2023/10/09 12:16:49;;;;;;;11.40;3.00;;;;;;;16.52;46.54;99102.34;134996;1283;22542;-64
2023/10/09 12:19:52;;;;;;;13.40;3.50;;;;;;;16.55;46.78;99102.09;134970;1283;22857;-62
2023/10/09 12:22:57;;;;;;;14.30;3.30;;;;;;;16.54;46.42;99107.21;135019;1282;22590;-64
2023/10/09 12:25:59;;;;;;;9.70;2.70;;;;;;;16.48;46.00;99115.65;135015;1282;23320;-64
2023/10/09 12:29:02;;;;;;;9.40;2.70;;;;;;;16.30;46.00;99107.09;135000;1267;22542;-63
2023/10/09 12:32:10;;;;;;;10.30;2.70;;;;;;;16.21;46.24;99101.95;134982;1283;22536;-64
2023/10/09 12:35:17;;;;;;;12.30;3.00;;;;;;;16.17;46.69;99105.45;134956;1282;23956;-64
2023/10/09 12:38:22;;;;;;;9.20;2.50;;;;;;;16.06;46.83;99106.00;135007;1282;22540;-64
2023/10/09 12:41:26;;;;;;;8.10;2.70;;;;;;;16.29;46.55;99093.06;135044;1283;25452;-64
2023/10/09 12:44:28;;;;;;;11.20;2.60;;;;;;;16.56;46.48;99090.11;135022;1283;22542;-64
2023/10/09 12:47:31;;;;;;;9.20;2.50;;;;;;;16.74;46.36;99091.91;135008;1267;25506;-64
2023/10/09 12:50:34;;;;;;;13.70;3.20;;;;;;;16.96;46.16;99094.34;134967;1283;23323;-65
2023/10/09 12:53:41;;;;;;;14.50;3.30;;;;;;;17.08;46.04;99097.42;135028;1267;24245;-64
2023/10/09 12:56:48;;;;;;;9.80;2.90;;;;;;;17.03;45.65;99100.66;135054;1283;22555;-64
2023/10/09 12:59:51;;;;;;;20.70;7.40;;;;;;;16.86;45.69;99096.94;134988;1282;25388;-63
2023/10/09 13:02:53;;;;;;;14.50;4.30;;;;;;;16.66;46.52;99095.55;135016;1282;25427;-64
2023/10/09 13:05:56;;;;;;;24.20;8.10;;;;;;;16.46;46.47;99093.75;134991;1283;24279;-62
2023/10/09 13:08:59;;;;;;;;;;;;;;;16.27;46.77;99092.66;135012;1283;22545;-63
2023/10/09 13:12:02;;;;;;;37.40;20.80;;;;;;;16.15;47.01;99093.30;135017;1282;22559;-64
2023/10/09 13:15:08;;;;;;;;;;;;;;;16.15;47.46;99089.41;135028;1283;22521;-64
2023/10/09 13:18:12;;;;;;;13.80;3.90;;;;;;;16.09;47.69;99078.58;134982;1283;22585;-62
2023/10/09 13:21:15;;;;;;;19.70;5.30;;;;;;;16.07;47.85;99080.48;134982;1283;22543;-63
2023/10/09 13:24:17;;;;;;;20.20;4.70;;;;;;;16.09;47.92;99075.24;135015;1283;22563;-62
2023/10/09 13:27:23;;;;;;;17.90;5.50;;;;;;;16.16;47.83;99075.88;135051;1283;25416;-63
2023/10/09 13:30:25;;;;;;;19.40;6.20;;;;;;;16.27;47.96;99074.85;134998;1282;22551;-64
2023/10/09 13:33:36;;;;;;;17.40;5.00;;;;;;;16.36;47.97;99069.56;135001;1282;22548;-63
2023/10/09 13:36:39;;;;;;;11.10;3.50;;;;;;;16.37;47.93;99067.65;135009;1282;22555;-64
2023/10/09 13:39:52;;;;;;;13.00;3.50;;;;;;;16.47;48.10;99053.71;134963;1283;22512;-64
2023/10/09 13:42:58;;;;;;;13.80;3.00;;;;;;;16.61;47.98;99046.68;134995;1282;23892;-64
2023/10/09 13:46:03;;;;;;;13.90;3.20;;;;;;;16.63;47.97;99048.98;134978;1283;25751;-64
2023/10/09 13:49:12;;;;;;;16.80;3.10;;;;;;;16.46;47.82;99052.13;134989;1282;22550;-63
2023/10/09 13:52:18;;;;;;;9.90;2.80;;;;;;;16.36;48.07;99044.12;135003;1283;22570;-64
2023/10/09 13:55:20;;;;;;;12.80;3.40;;;;;;;16.46;48.19;99050.34;134993;1282;24056;-64
2023/10/09 13:58:23;;;;;;;21.00;6.70;;;;;;;16.48;48.37;99048.31;134996;1283;22539;-64
2023/10/09 14:01:32;;;;;;;12.10;2.80;;;;;;;16.43;48.13;99053.11;135000;1283;25508;-63
2023/10/09 14:04:34;;;;;;;15.60;4.00;;;;;;;16.22;47.98;99056.92;134994;1283;25403;-64
2023/10/09 14:07:37;;;;;;;14.20;3.10;;;;;;;15.98;48.73;99064.27;135026;1283;22544;-63
2023/10/09 14:10:40;;;;;;;9.20;2.50;;;;;;;15.99;48.94;99069.99;134955;1283;22559;-64
2023/10/09 14:13:42;;;;;;;9.00;2.40;;;;;;;15.89;49.16;99070.42;135006;1283;24235;-64
2023/10/09 14:16:45;;;;;;;13.70;3.40;;;;;;;15.86;49.01;99068.08;134988;1282;22590;-64
2023/10/09 14:19:48;;;;;;;10.40;2.80;;;;;;;15.76;49.26;99066.19;135003;1282;22622;-64
2023/10/09 14:22:52;;;;;;;8.10;2.60;;;;;;;15.71;49.19;99061.76;135011;1283;25416;-63
2023/10/09 14:25:56;;;;;;;11.20;3.00;;;;;;;15.65;49.23;99060.00;134979;1283;22544;-64
2023/10/09 14:28:58;;;;;;;10.70;2.80;;;;;;;15.65;49.20;99061.95;134981;1283;22540;-64
2023/10/09 14:32:03;;;;;;;8.60;2.70;;;;;;;15.54;49.48;99067.19;134983;1282;25275;-64
2023/10/09 14:35:12;;;;;;;10.00;2.70;;;;;;;15.42;49.67;99064.52;134985;1277;22544;-64
2023/10/09 14:38:15;;;;;;;11.50;3.50;;;;;;;15.31;49.91;99064.84;134964;1282;22541;-64
2023/10/09 14:41:21;;;;;;;22.00;6.40;;;;;;;15.47;49.64;99058.55;135016;1283;22621;-63
2023/10/09 14:44:23;;;;;;;26.40;7.80;;;;;;;15.52;49.78;99052.70;134974;1283;22539;-64
2023/10/09 14:47:26;;;;;;;;;;;;;;;15.52;49.77;99046.03;135022;1283;22524;-63
2023/10/09 14:50:28;;;;;;;18.70;4.50;;;;;;;15.41;49.94;99041.20;134948;1282;22543;-64
2023/10/09 14:53:31;;;;;;;19.60;5.40;;;;;;;15.37;49.99;99045.06;134939;1283;22544;-64
2023/10/09 14:56:36;;;;;;;18.90;5.60;;;;;;;15.35;50.00;99047.30;135001;1283;25451;-63
2023/10/09 14:59:39;;;;;;;16.30;4.20;;;;;;;15.37;50.23;99042.23;134951;1282;26669;-63
2023/10/09 15:02:42;;;;;;;21.30;5.60;;;;;;;15.36;50.04;99032.93;134999;1283;22598;-64